Time;durP1;ratioP1;P1;durP2;ratioP2;P2;SDS_P1;SDS_P2;PMS_P1;PMS_P2;Temp;Humidity;BMP_temperature;BMP_pressure;BME280_temperature;BME280_humidity;BME280_pressure;Samples;Min_cycle;Max_cycle;Signal;HPM_P1;HPM_P2
2020/12/30 12:42:16;;;;;;;26.20;16.03;;;4.10;99.90;;;;;;4999550;28;20611;-74
2020/12/30 12:44:42;;;;;;;28.43;16.20;;;4.10;99.90;;;;;;4999935;28;20481;-75
2020/12/30 12:47:08;;;;;;;25.63;14.77;;;4.10;99.90;;;;;;5002222;28;20481;-77
2020/12/30 12:49:34;;;;;;;28.63;16.87;;;4.10;99.90;;;;;;4982760;28;20337;-76
2020/12/30 12:52:00;;;;;;;26.70;16.33;;;4.20;99.90;;;;;;5002428;28;20806;-75
2020/12/30 12:54:26;;;;;;;22.37;14.17;;;4.20;99.90;;;;;;4999699;28;20318;-75
2020/12/30 12:57:03;;;;;;;24.80;15.80;;;4.30;99.90;;;;;;4993450;28;20977;-75
2020/12/30 12:59:29;;;;;;;25.17;15.80;;;4.30;99.90;;;;;;4991082;28;20778;-75
2020/12/30 13:01:55;;;;;;;26.13;14.83;;;4.30;99.90;;;;;;4995839;28;20525;-75
2020/12/30 13:04:21;;;;;;;20.33;12.70;;;4.30;99.90;;;;;;5004673;28;20234;-77
2020/12/30 13:06:47;;;;;;;20.70;12.60;;;4.30;99.90;;;;;;5001407;28;22042;-77
2020/12/30 13:09:14;;;;;;;22.57;14.33;;;4.40;99.90;;;;;;5002299;28;20214;-78
2020/12/30 13:11:47;;;;;;;22.60;14.00;;;4.30;91.00;;;;;;5102912;22;20246;-79
2020/12/30 13:14:13;;;;;;;21.17;14.70;;;4.20;74.20;;;;;;4980341;28;20479;-79
2020/12/30 13:16:52;;;;;;;20.20;13.23;;;4.30;84.10;;;;;;4990451;28;20686;-78
2020/12/30 13:19:19;;;;;;;24.30;14.60;;;4.30;90.80;;;;;;4993253;28;20466;-78
2020/12/30 13:21:45;;;;;;;19.47;13.20;;;4.30;73.20;;;;;;4994707;28;20474;-79
2020/12/30 13:24:11;;;;;;;22.93;13.73;;;4.30;88.40;;;;;;4993783;28;20475;-79
2020/12/30 13:26:37;;;;;;;22.63;15.00;;;4.30;82.40;;;;;;4979529;28;23114;-79
2020/12/30 13:29:32;;;;;;;25.20;15.77;;;4.30;98.10;;;;;;4983149;28;20466;-79
2020/12/30 13:31:58;;;;;;;21.13;13.70;;;4.30;72.30;;;;;;4967671;28;20513;-76
2020/12/30 13:34:24;;;;;;;23.40;15.40;;;4.30;61.00;;;;;;4986581;28;21363;-76
2020/12/30 13:36:53;;;;;;;21.63;14.50;;;4.30;83.30;;;;;;4987114;28;20343;-79
2020/12/30 13:39:19;;;;;;;19.77;14.47;;;4.30;70.80;;;;;;4993706;28;20718;-79
2020/12/30 13:41:45;;;;;;;26.73;16.17;;;4.30;73.70;;;;;;4988096;28;20546;-79
2020/12/30 13:44:11;;;;;;;28.10;16.13;;;4.30;85.30;;;;;;4990410;28;20193;-77
2020/12/30 13:46:36;;;;;;;22.77;15.87;;;4.30;99.90;;;;;;4989136;28;20458;-76
2020/12/30 13:49:02;;;;;;;27.00;15.03;;;4.20;99.90;;;;;;4984084;28;20189;-78
2020/12/30 13:51:28;;;;;;;21.33;14.60;;;4.20;99.90;;;;;;4995232;28;20467;-78
2020/12/30 13:54:30;;;;;;;21.33;14.13;;;4.00;99.90;;;;;;4980638;28;20482;-78
2020/12/30 13:56:58;;;;;;;22.50;13.80;;;4.00;99.90;;;;;;4979083;28;20220;-76
2020/12/30 13:59:24;;;;;;;19.27;13.37;;;4.00;1.00;;;;;;4973679;28;20883;-76
2020/12/30 14:01:55;;;;;;;23.70;14.60;;;4.00;1.00;;;;;;4979303;28;20448;-77
2020/12/30 14:04:21;;;;;;;24.57;16.30;;;3.90;1.00;;;;;;4976464;28;20219;-76
2020/12/30 14:06:47;;;;;;;24.87;15.30;;;3.90;99.90;;;;;;4975430;28;20447;-77
2020/12/30 14:09:13;;;;;;;20.83;14.43;;;3.90;1.00;;;;;;4970634;28;20472;-77
2020/12/30 14:11:38;;;;;;;23.80;14.53;;;3.90;99.90;;;;;;4970962;28;20255;-79
2020/12/30 14:14:04;;;;;;;23.07;14.17;;;3.90;1.00;;;;;;4978328;28;20189;-77
2020/12/30 14:16:30;;;;;;;21.63;13.77;;;3.90;99.90;;;;;;4974788;28;20184;-77
2020/12/30 14:18:55;;;;;;;21.70;13.50;;;3.90;99.90;;;;;;4976585;28;20558;-77
2020/12/30 14:21:21;;;;;;;18.00;12.43;;;3.90;99.90;;;;;;4980130;28;20680;-77
2020/12/30 14:23:46;;;;;;;21.77;13.67;;;5.40;99.90;;;;;;4975311;28;20676;-78
2020/12/30 14:26:20;;;;;;;23.33;12.63;;;6.70;1.00;;;;;;4971702;28;20219;-78
2020/12/30 14:28:45;;;;;;;17.03;9.70;;;7.50;9.00;;;;;;4971523;28;20194;-78
2020/12/30 14:31:13;;;;;;;16.53;12.33;;;8.40;1.00;;;;;;4976948;28;20509;-80
2020/12/30 14:33:39;;;;;;;14.73;9.67;;;7.30;1.00;;;;;;4976159;28;20191;-79
2020/12/30 14:36:05;;;;;;;18.30;11.23;;;7.80;18.30;;;;;;4981828;28;20980;-79
2020/12/30 14:38:31;;;;;;;21.40;13.40;;;8.50;1.00;;;;;;4968466;28;20195;-80
2020/12/30 14:40:57;;;;;;;18.93;13.33;;;7.70;1.00;;;;;;4977101;28;20538;-77
2020/12/30 14:43:23;;;;;;;25.93;13.57;;;7.10;1.00;;;;;;4976909;28;20182;-79
2020/12/30 14:45:48;;;;;;;20.63;14.27;;;7.30;1.00;;;;;;4977166;28;20481;-79
2020/12/30 14:48:14;;;;;;;17.97;13.70;;;6.70;1.00;;;;;;4978273;28;20184;-80
2020/12/30 14:50:40;;;;;;;22.63;14.43;;;6.10;1.00;;;;;;4968087;28;20292;-79
2020/12/30 14:53:05;;;;;;;20.43;14.13;;;6.50;33.10;;;;;;4971030;28;20216;-79
2020/12/30 14:55:54;;;;;;;22.50;15.00;;;6.80;1.00;;;;;;4970348;28;20770;-82
2020/12/30 14:58:20;;;;;;;27.43;16.10;;;6.60;1.00;;;;;;4972967;28;20220;-80
2020/12/30 15:00:45;;;;;;;26.17;14.00;;;6.90;1.00;;;;;;4972828;28;23282;-80
2020/12/30 15:03:11;;;;;;;19.20;13.20;;;7.20;1.00;;;;;;4969310;28;20174;-81
2020/12/30 15:05:37;;;;;;;17.63;13.07;;;7.10;1.00;;;;;;4975146;28;20198;-81
2020/12/30 15:08:02;;;;;;;20.07;13.60;;;6.80;1.00;;;;;;4980970;28;20917;-78
2020/12/30 15:10:28;;;;;;;20.13;13.03;;;7.00;1.00;;;;;;4972308;28;24443;-81
2020/12/30 15:12:54;;;;;;;19.00;13.23;;;6.70;1.00;;;;;;4976906;28;20565;-88
2020/12/30 15:15:19;;;;;;;20.93;13.33;;;7.40;1.00;;;;;;4979990;28;20183;-76
2020/12/30 15:17:45;;;;;;;44.27;17.20;;;7.60;1.00;;;;;;4967598;28;20187;-76
2020/12/30 15:20:11;;;;;;;16.60;12.17;;;7.90;1.00;;;;;;4972419;28;20185;-79
2020/12/30 15:22:48;;;;;;;22.30;12.90;;;8.10;1.00;;;;;;4987421;28;20710;-80
2020/12/30 15:25:24;;;;;;;18.90;12.57;;;7.80;1.00;;;;;;4987213;28;20186;-82
2020/12/30 15:27:50;;;;;;;18.57;11.90;;;7.60;1.00;;;;;;4975872;28;21017;-81
2020/12/30 15:30:15;;;;;;;23.43;15.03;;;7.50;1.00;;;;;;4975596;28;20486;-79
2020/12/30 15:32:41;;;;;;;20.77;14.30;;;7.90;1.00;;;;;;4970462;28;20625;-88
2020/12/30 15:35:07;;;;;;;67.87;27.97;;;7.30;1.00;;;;;;4973632;28;20284;-81
2020/12/30 15:37:33;;;;;;;16.13;12.23;;;7.30;1.00;;;;;;4975094;28;20199;-78
2020/12/30 15:39:59;;;;;;;16.93;12.90;;;7.00;1.00;;;;;;4982557;28;20190;-81
2020/12/30 15:42:25;;;;;;;16.77;12.10;;;7.10;1.00;;;;;;4987567;28;20774;-82
2020/12/30 15:44:50;;;;;;;23.97;13.00;;;7.60;1.00;;;;;;4984400;28;20599;-82
2020/12/30 15:47:16;;;;;;;17.33;12.13;;;7.00;1.00;;;;;;4974595;28;20196;-79
2020/12/30 15:49:42;;;;;;;16.20;11.63;;;7.10;1.00;;;;;;4979383;28;20271;-77
2020/12/30 15:52:07;;;;;;;21.10;13.70;;;7.00;1.00;;;;;;4982841;28;20216;-80
2020/12/30 15:54:33;;;;;;;26.37;14.50;;;6.60;1.00;;;;;;4976652;28;20188;-80
2020/12/30 15:56:59;;;;;;;24.53;14.03;;;6.50;1.00;;;;;;4972012;28;20265;-79
2020/12/30 15:59:24;;;;;;;23.10;15.30;;;6.50;1.00;;;;;;4975904;28;20186;-80
2020/12/30 16:01:51;;;;;;;22.20;14.70;;;5.80;1.00;;;;;;4981171;28;20211;-79
2020/12/30 16:04:17;;;;;;;18.50;13.80;;;5.10;1.00;;;;;;4981233;28;21905;-78
2020/12/30 16:07:47;;;;;;;19.93;13.10;;;6.40;15.80;;;;;;5035799;27;20602;-77
2020/12/30 16:10:13;;;;;;;20.90;14.70;;;6.40;1.00;;;;;;5023084;28;22235;-78
2020/12/30 16:12:39;;;;;;;24.60;16.50;;;6.50;1.00;;;;;;5019612;28;20442;-77
2020/12/30 16:15:05;;;;;;;22.53;15.30;;;6.60;1.00;;;;;;5021031;28;20191;-79
2020/12/30 16:17:30;;;;;;;21.53;15.10;;;5.50;1.00;;;;;;5020152;28;20206;-77
2020/12/30 16:19:56;;;;;;;29.67;16.30;;;5.10;18.30;;;;;;5029217;28;20219;-78
2020/12/30 16:22:22;;;;;;;26.03;16.23;;;4.70;64.90;;;;;;5025810;28;20219;-77
2020/12/30 16:25:38;;;;;;;23.13;15.60;;;4.60;99.90;;;;;;5023445;28;20180;-80
2020/12/30 16:28:05;;;;;;;25.63;16.23;;;4.40;99.90;;;;;;5013826;28;20254;-78
2020/12/30 16:30:30;;;;;;;26.50;17.10;;;4.40;99.90;;;;;;5035247;28;20996;-77
2020/12/30 16:32:56;;;;;;;22.20;15.80;;;4.40;99.90;;;;;;5028268;28;20537;-79
2020/12/30 16:35:22;;;;;;;25.23;16.10;;;4.30;99.90;;;;;;5026838;28;20308;-78
2020/12/30 16:37:47;;;;;;;25.63;17.00;;;4.30;99.90;;;;;;5025996;28;20192;-78
2020/12/30 16:40:13;;;;;;;27.23;17.27;;;4.30;99.90;;;;;;5029612;28;20195;-79
2020/12/30 16:42:39;;;;;;;29.80;17.43;;;4.30;99.90;;;;;;5026130;28;20852;-78
2020/12/30 16:45:05;;;;;;;27.80;17.10;;;4.30;99.90;;;;;;5028396;28;20632;-78
2020/12/30 16:47:30;;;;;;;24.73;16.90;;;4.30;99.90;;;;;;5026377;28;20219;-77
2020/12/30 16:49:56;;;;;;;26.50;17.20;;;4.30;99.90;;;;;;5021221;28;21139;-80
2020/12/30 16:52:31;;;;;;;25.73;16.77;;;4.40;99.90;;;;;;5027471;28;20501;-77
2020/12/30 16:54:57;;;;;;;25.57;18.70;;;4.30;99.90;;;;;;5020285;28;20297;-77
2020/12/30 16:57:22;;;;;;;25.30;18.30;;;4.30;99.90;;;;;;5019036;28;20492;-78
2020/12/30 16:59:48;;;;;;;30.50;17.60;;;4.30;99.90;;;;;;5021146;28;20263;-77
2020/12/30 17:02:14;;;;;;;25.90;17.47;;;4.30;99.90;;;;;;5026776;28;20276;-77
2020/12/30 17:04:42;;;;;;;26.50;18.03;;;4.30;99.90;;;;;;5017000;28;20204;-78
2020/12/30 17:07:11;;;;;;;23.80;16.60;;;4.20;99.90;;;;;;5007445;28;21000;-78
2020/12/30 17:09:37;;;;;;;27.70;18.37;;;4.20;99.90;;;;;;5010404;28;20474;-77
2020/12/30 17:12:03;;;;;;;29.93;17.67;;;4.30;99.90;;;;;;5016289;28;20206;-76
2020/12/30 17:14:29;;;;;;;26.27;16.97;;;4.20;99.90;;;;;;5019539;28;20586;-77
2020/12/30 17:16:57;;;;;;;28.53;17.20;;;4.30;99.90;;;;;;5027141;28;21035;-77
2020/12/30 17:19:23;;;;;;;27.70;17.00;;;4.20;99.90;;;;;;5012225;28;20184;-77
2020/12/30 17:21:59;;;;;;;25.70;18.23;;;4.30;99.90;;;;;;5014804;28;20492;-77
2020/12/30 17:24:29;;;;;;;27.70;17.40;;;4.30;99.90;;;;;;5009298;28;21027;-77
2020/12/30 17:26:59;;;;;;;29.60;18.00;;;4.20;99.90;;;;;;5004989;28;21008;-79
2020/12/30 17:29:27;;;;;;;28.33;18.57;;;4.20;99.90;;;;;;5011108;28;20453;-77
2020/12/30 17:31:53;;;;;;;23.00;16.83;;;4.10;99.90;;;;;;5010160;28;20462;-78
2020/12/30 17:34:19;;;;;;;30.60;18.87;;;4.10;99.90;;;;;;5010107;28;20441;-78
2020/12/30 17:36:45;;;;;;;23.70;17.33;;;4.10;99.90;;;;;;5014535;28;20458;-78
2020/12/30 17:39:12;;;;;;;31.97;17.97;;;4.10;99.90;;;;;;5017552;28;23743;-78
2020/12/30 17:41:37;;;;;;;31.50;16.83;;;4.10;99.90;;;;;;5011403;28;20456;-78
2020/12/30 17:44:06;;;;;;;30.93;18.00;;;4.20;99.90;;;;;;5016572;28;20812;-77
2020/12/30 17:46:32;;;;;;;23.37;14.70;;;4.10;99.90;;;;;;5016565;28;20553;-77
2020/12/30 17:48:58;;;;;;;22.17;15.90;;;4.10;99.90;;;;;;5011721;28;22782;-77
2020/12/30 17:51:24;;;;;;;21.43;16.13;;;4.10;99.90;;;;;;5009252;28;20513;-77
2020/12/30 17:53:50;;;;;;;26.50;15.70;;;4.20;99.90;;;;;;5012590;28;20666;-77
2020/12/30 17:56:15;;;;;;;24.60;16.00;;;4.10;99.90;;;;;;5015154;28;20185;-79
2020/12/30 17:58:44;;;;;;;24.97;16.90;;;4.10;99.90;;;;;;5013793;28;20858;-78
2020/12/30 18:01:09;;;;;;;27.63;17.83;;;4.20;99.90;;;;;;5017010;28;20451;-77
2020/12/30 18:03:35;;;;;;;24.00;16.03;;;4.10;99.90;;;;;;5017933;28;20274;-77
2020/12/30 18:06:11;;;;;;;27.73;16.20;;;4.10;99.90;;;;;;5014641;28;20268;-77
2020/12/30 18:08:38;;;;;;;21.17;14.30;;;4.10;94.60;;;;;;5014925;28;20195;-79
2020/12/30 18:11:04;;;;;;;26.27;16.53;;;4.10;91.70;;;;;;5014066;28;20447;-79
2020/12/30 18:13:30;;;;;;;28.33;14.80;;;4.10;81.00;;;;;;5008690;28;22430;-77
2020/12/30 18:15:57;;;;;;;28.37;15.97;;;4.10;88.50;;;;;;5015018;28;20736;-79
2020/12/30 18:18:23;;;;;;;25.63;13.63;;;4.00;60.20;;;;;;5010496;28;20196;-82
2020/12/30 18:20:55;;;;;;;21.80;13.83;;;4.00;51.50;;;;;;5017384;28;20786;-81
2020/12/30 18:23:24;;;;;;;22.93;14.30;;;4.00;41.50;;;;;;5014193;28;20216;-82
2020/12/30 18:25:50;;;;;;;25.53;14.33;;;4.00;49.20;;;;;;5013286;28;21641;-80
2020/12/30 18:28:15;;;;;;;21.37;13.23;;;4.00;44.20;;;;;;5011988;28;24306;-80
2020/12/30 18:30:41;;;;;;;19.83;14.10;;;4.00;32.60;;;;;;5012508;28;20187;-80
2020/12/30 18:33:07;;;;;;;25.73;14.67;;;4.00;35.90;;;;;;5017150;28;20545;-80
2020/12/30 18:35:32;;;;;;;21.67;14.50;;;4.00;46.10;;;;;;5017377;28;21799;-79
2020/12/30 18:37:58;;;;;;;22.33;14.23;;;3.90;50.20;;;;;;5015696;28;20633;-78
2020/12/30 18:40:24;;;;;;;24.80;14.40;;;4.00;39.80;;;;;;5013226;28;20188;-78
2020/12/30 18:42:50;;;;;;;19.70;13.40;;;4.00;43.30;;;;;;5009952;28;20325;-77
2020/12/30 18:45:15;;;;;;;18.53;12.30;;;4.00;37.30;;;;;;5016134;28;20792;-77
2020/12/30 18:47:41;;;;;;;19.53;12.37;;;4.00;38.10;;;;;;5010628;28;20216;-76
2020/12/30 18:50:07;;;;;;;20.93;14.20;;;4.00;28.20;;;;;;5014484;28;20291;-78
2020/12/30 18:52:37;;;;;;;19.57;13.23;;;4.10;32.80;;;;;;5013127;28;20731;-80
2020/12/30 18:55:07;;;;;;;26.30;14.70;;;4.10;28.80;;;;;;5014809;28;20448;-77
2020/12/30 18:57:36;;;;;;;20.60;13.10;;;4.10;33.20;;;;;;5014068;28;21012;-81
2020/12/30 19:00:04;;;;;;;20.47;12.93;;;4.10;30.50;;;;;;5015946;28;20443;-80
2020/12/30 19:02:30;;;;;;;28.63;14.47;;;4.10;32.00;;;;;;5014886;28;20446;-80
2020/12/30 19:04:55;;;;;;;20.67;13.80;;;4.00;26.50;;;;;;5013778;28;20810;-78
2020/12/30 19:07:21;;;;;;;20.67;12.50;;;4.00;29.50;;;;;;5012287;28;20232;-80
2020/12/30 19:09:47;;;;;;;18.27;12.23;;;4.10;23.00;;;;;;5016043;28;20195;-77
2020/12/30 19:12:12;;;;;;;18.97;12.83;;;4.10;31.60;;;;;;5018117;28;20212;-80
2020/12/30 19:14:38;;;;;;;19.47;12.13;;;4.00;26.10;;;;;;5017855;28;20188;-77
2020/12/30 19:17:04;;;;;;;20.10;12.20;;;4.00;26.20;;;;;;5007054;28;20221;-78
2020/12/30 19:19:30;;;;;;;17.40;12.30;;;4.00;29.80;;;;;;5013915;28;20202;-77
2020/12/30 19:21:56;;;;;;;20.30;12.00;;;4.00;25.20;;;;;;5007402;28;20462;-77
2020/12/30 19:24:22;;;;;;;16.20;11.10;;;4.00;13.90;;;;;;5010317;28;20458;-77
2020/12/30 19:26:48;;;;;;;15.60;10.77;;;4.00;15.40;;;;;;5014318;28;20486;-76
2020/12/30 19:29:15;;;;;;;19.33;11.50;;;4.00;17.80;;;;;;5013781;28;20658;-77
2020/12/30 19:31:41;;;;;;;17.83;10.93;;;4.00;13.50;;;;;;5008201;28;20454;-76
2020/12/30 19:34:13;;;;;;;19.63;11.17;;;4.00;11.50;;;;;;5028177;28;20445;-76
2020/12/30 19:36:39;;;;;;;16.87;11.50;;;4.00;1.30;;;;;;5016797;28;20491;-77
2020/12/30 19:39:07;;;;;;;16.07;10.60;;;4.00;2.20;;;;;;5016578;28;20566;-76
2020/12/30 19:41:33;;;;;;;15.63;11.63;;;4.00;1.60;;;;;;5012277;28;20269;-77
2020/12/30 19:43:59;;;;;;;15.83;9.77;;;4.00;1.00;;;;;;5006697;28;20520;-77
2020/12/30 19:46:26;;;;;;;14.57;10.37;;;4.00;4.60;;;;;;5014146;28;20478;-76
2020/12/30 19:48:52;;;;;;;16.07;10.13;;;4.00;2.40;;;;;;5015341;28;20853;-76
2020/12/30 19:51:25;;;;;;;18.93;9.83;;;4.00;2.00;;;;;;5014318;28;20532;-76
2020/12/30 19:53:51;;;;;;;16.53;9.43;;;3.90;1.00;;;;;;5014704;28;20442;-76
2020/12/30 19:56:17;;;;;;;14.57;9.37;;;3.90;1.00;;;;;;5013402;28;20519;-76
2020/12/30 19:58:44;;;;;;;14.03;9.20;;;3.90;1.00;;;;;;5016044;28;20259;-76
2020/12/30 20:01:15;;;;;;;13.87;8.83;;;3.90;1.00;;;;;;5015748;28;20461;-76
2020/12/30 20:03:41;;;;;;;14.20;9.23;;;3.90;1.00;;;;;;5004813;28;20450;-75
2020/12/30 20:06:07;;;;;;;15.30;7.90;;;3.90;1.00;;;;;;5004286;28;20600;-75
2020/12/30 20:08:33;;;;;;;14.00;8.67;;;3.90;1.00;;;;;;5003048;28;20494;-76
2020/12/30 20:10:58;;;;;;;13.17;8.40;;;3.90;1.00;;;;;;5010345;28;21031;-75
2020/12/30 20:13:24;;;;;;;16.30;9.10;;;3.90;1.00;;;;;;5011107;28;21016;-76
2020/12/30 20:15:50;;;;;;;14.20;9.43;;;3.90;1.00;;;;;;5015175;28;20210;-77
2020/12/30 20:18:15;;;;;;;14.10;8.30;;;3.90;1.00;;;;;;5010762;28;20194;-76
2020/12/30 20:20:41;;;;;;;17.07;9.80;;;3.90;1.00;;;;;;5013442;28;20184;-77
2020/12/30 20:23:07;;;;;;;13.83;10.07;;;3.90;1.00;;;;;;5017675;28;20188;-76
2020/12/30 20:25:33;;;;;;;16.10;10.80;;;4.00;1.00;;;;;;5012194;28;20680;-77
2020/12/30 20:27:59;;;;;;;12.80;10.30;;;4.00;1.00;;;;;;5012279;28;20223;-76
2020/12/30 20:30:25;;;;;;;19.37;11.10;;;4.00;1.00;;;;;;5014800;28;20994;-77
2020/12/30 20:32:51;;;;;;;19.37;10.90;;;4.00;1.00;;;;;;5009026;28;20750;-76
2020/12/30 20:35:17;;;;;;;14.70;11.30;;;3.90;1.00;;;;;;5005878;28;20175;-76
2020/12/30 20:37:44;;;;;;;13.30;9.80;;;4.00;1.00;;;;;;5003386;28;20462;-75
2020/12/30 20:40:12;;;;;;;17.60;10.10;;;4.00;1.00;;;;;;5005544;28;20492;-78
2020/12/30 20:42:41;;;;;;;17.63;11.50;;;4.00;1.00;;;;;;5002690;28;20541;-77
2020/12/30 20:45:08;;;;;;;16.90;10.87;;;4.00;1.00;;;;;;5010280;28;20453;-77
2020/12/30 20:47:35;;;;;;;18.50;11.40;;;4.00;1.00;;;;;;5010822;28;20501;-78
2020/12/30 20:50:01;;;;;;;18.57;10.60;;;4.00;1.00;;;;;;5014325;28;20505;-77
2020/12/30 20:52:26;;;;;;;20.70;10.00;;;4.00;1.00;;;;;;5013836;28;20451;-77
2020/12/30 20:54:52;;;;;;;13.67;10.00;;;4.00;1.00;;;;;;5010357;28;20460;-77
2020/12/30 20:57:18;;;;;;;15.70;10.90;;;4.10;1.00;;;;;;5009718;28;20270;-78
2020/12/30 20:59:46;;;;;;;13.47;9.20;;;4.10;1.00;;;;;;5008951;28;20503;-77
2020/12/30 21:02:12;;;;;;;18.13;11.80;;;4.10;1.00;;;;;;5015230;28;20198;-77
2020/12/30 21:04:37;;;;;;;15.47;9.57;;;4.00;1.00;;;;;;5015363;28;20836;-77
2020/12/30 21:07:04;;;;;;;15.80;9.90;;;4.00;1.00;;;;;;5009626;28;20342;-77
2020/12/30 21:09:29;;;;;;;13.07;9.77;;;4.00;1.00;;;;;;5002484;28;20283;-77
2020/12/30 21:11:55;;;;;;;14.40;10.10;;;4.00;1.00;;;;;;5009167;28;20570;-77
2020/12/30 21:14:21;;;;;;;16.83;10.40;;;4.10;1.00;;;;;;5006930;28;20188;-76
2020/12/30 21:16:46;;;;;;;16.90;10.57;;;4.00;1.00;;;;;;5010302;28;20313;-77
2020/12/30 21:19:12;;;;;;;17.37;11.53;;;4.00;1.00;;;;;;5011925;28;21229;-76
2020/12/30 21:21:44;;;;;;;15.37;10.33;;;4.00;1.00;;;;;;5015033;28;20183;-76
2020/12/30 21:24:10;;;;;;;12.97;9.07;;;4.10;1.00;;;;;;5014938;28;20191;-76
2020/12/30 21:26:42;;;;;;;13.73;9.33;;;4.00;1.00;;;;;;5008486;28;20521;-77
2020/12/30 21:29:08;;;;;;;14.63;9.60;;;4.10;1.00;;;;;;5008089;28;21002;-77
2020/12/30 21:31:34;;;;;;;15.63;10.30;;;4.10;1.00;;;;;;5010572;28;20484;-76
2020/12/30 21:33:59;;;;;;;13.67;9.80;;;4.00;1.00;;;;;;5010503;28;20188;-76
2020/12/30 21:36:25;;;;;;;17.00;9.67;;;4.00;1.00;;;;;;5006218;28;20291;-75
2020/12/30 21:38:51;;;;;;;16.33;8.60;;;4.00;1.00;;;;;;5006531;28;20903;-77
2020/12/30 21:41:18;;;;;;;11.97;9.00;;;4.00;1.00;;;;;;5007331;28;20877;-76
2020/12/30 21:43:45;;;;;;;12.17;8.10;;;4.10;1.00;;;;;;5012662;28;20341;-76
2020/12/30 21:46:12;;;;;;;12.43;9.10;;;4.00;1.00;;;;;;5020346;28;20478;-77
2020/12/30 21:48:39;;;;;;;15.37;8.80;;;4.00;1.00;;;;;;5025105;28;20862;-76
2020/12/30 21:51:16;;;;;;;12.53;8.77;;;4.00;1.00;;;;;;5011415;28;20450;-76
2020/12/30 21:53:42;;;;;;;12.60;8.40;;;4.00;1.00;;;;;;5005040;28;20596;-77
2020/12/30 21:56:15;;;;;;;11.07;8.50;;;4.00;1.00;;;;;;5004982;28;20462;-77
2020/12/30 21:58:42;;;;;;;11.67;7.27;;;4.00;1.00;;;;;;5005890;28;20910;-77
2020/12/30 22:01:16;;;;;;;12.50;7.40;;;4.00;1.00;;;;;;5006204;28;20524;-76
2020/12/30 22:03:42;;;;;;;10.60;6.83;;;4.00;1.00;;;;;;5043074;28;20982;-76
2020/12/30 22:06:12;;;;;;;9.73;6.33;;;4.00;1.00;;;;;;5010742;28;20482;-76
2020/12/30 22:08:39;;;;;;;16.47;7.67;;;3.90;1.00;;;;;;5006063;28;20211;-77
2020/12/30 22:11:18;;;;;;;10.73;7.27;;;3.90;1.00;;;;;;5015007;28;20454;-77
2020/12/30 22:13:46;;;;;;;10.17;7.43;;;3.90;1.00;;;;;;5012379;28;20837;-77
2020/12/30 22:16:13;;;;;;;14.03;6.43;;;3.90;1.00;;;;;;5018151;28;20540;-77
2020/12/30 22:18:39;;;;;;;9.17;6.10;;;3.90;1.00;;;;;;5008961;28;20838;-77
2020/12/30 22:21:09;;;;;;;9.83;6.17;;;3.90;1.00;;;;;;5014659;28;20510;-77
2020/12/30 22:23:35;;;;;;;7.60;6.00;;;3.90;1.00;;;;;;5017163;28;20583;-77
2020/12/30 22:26:01;;;;;;;12.50;6.50;;;3.90;1.00;;;;;;5015585;28;20964;-77
2020/12/30 22:28:26;;;;;;;13.00;6.33;;;3.90;1.00;;;;;;5004134;28;20281;-77
2020/12/30 22:30:52;;;;;;;6.97;5.93;;;3.80;1.00;;;;;;5007730;28;20953;-77
2020/12/30 22:33:18;;;;;;;13.57;5.70;;;3.70;1.00;;;;;;5015899;28;20191;-77
2020/12/30 22:35:43;;;;;;;7.37;5.90;;;3.70;1.00;;;;;;5007124;28;20203;-78
2020/12/30 22:38:09;;;;;;;7.67;5.70;;;3.70;1.00;;;;;;5002478;28;20192;-77
2020/12/30 22:40:35;;;;;;;8.63;6.23;;;3.70;1.00;;;;;;5019720;28;20294;-77
2020/12/30 22:43:00;;;;;;;8.67;6.73;;;3.70;1.00;;;;;;5013241;28;20222;-77
2020/12/30 22:45:27;;;;;;;14.13;7.77;;;3.70;1.00;;;;;;5018453;28;20183;-77
2020/12/30 22:47:52;;;;;;;10.73;6.60;;;3.70;1.00;;;;;;5010913;28;22064;-76
2020/12/30 22:50:18;;;;;;;10.70;6.47;;;3.70;1.00;;;;;;5012615;28;20456;-77
2020/12/30 22:52:44;;;;;;;11.40;6.67;;;3.70;1.00;;;;;;5015380;28;20683;-77
2020/12/30 22:55:10;;;;;;;10.23;6.67;;;3.70;1.00;;;;;;5013875;28;20443;-77
2020/12/30 22:57:36;;;;;;;11.50;6.70;;;3.70;1.00;;;;;;5010168;28;20459;-77
2020/12/30 23:00:03;;;;;;;7.47;5.47;;;3.60;1.00;;;;;;5011641;28;20207;-77
2020/12/30 23:02:29;;;;;;;7.97;5.57;;;3.60;1.00;;;;;;5010696;28;20188;-77
2020/12/30 23:04:55;;;;;;;9.30;6.10;;;3.70;1.00;;;;;;5014517;28;20828;-76
2020/12/30 23:07:21;;;;;;;8.63;5.00;;;3.60;1.00;;;;;;5002140;28;20488;-77
2020/12/30 23:09:46;;;;;;;11.23;6.40;;;3.60;1.00;;;;;;5001844;28;20208;-76
2020/12/30 23:12:12;;;;;;;8.63;5.90;;;3.60;1.00;;;;;;5006604;28;20247;-77
2020/12/30 23:14:37;;;;;;;8.30;5.67;;;3.70;1.00;;;;;;5010855;28;20301;-77
2020/12/30 23:17:04;;;;;;;8.30;5.27;;;3.70;1.00;;;;;;5004937;28;20192;-77
2020/12/30 23:19:36;;;;;;;7.50;5.87;;;3.70;1.00;;;;;;5012300;28;20211;-76
2020/12/30 23:22:04;;;;;;;7.10;6.10;;;3.70;1.00;;;;;;5014153;28;20838;-76
2020/12/30 23:24:30;;;;;;;6.80;5.23;;;3.70;1.00;;;;;;5013525;28;20454;-76
2020/12/30 23:26:56;;;;;;;5.70;4.57;;;3.60;1.00;;;;;;5005314;28;20231;-75
2020/12/30 23:29:22;;;;;;;8.80;5.50;;;3.60;1.00;;;;;;5011683;28;20485;-77
2020/12/30 23:31:48;;;;;;;6.60;5.17;;;3.60;1.00;;;;;;5016234;28;20438;-76
2020/12/30 23:34:13;;;;;;;5.97;5.37;;;3.50;1.00;;;;;;5025824;28;21706;-76
2020/12/30 23:36:39;;;;;;;11.60;5.60;;;3.50;1.00;;;;;;5004119;28;20195;-76
2020/12/30 23:39:05;;;;;;;10.00;6.20;;;3.40;1.00;;;;;;5012253;28;20185;-76
2020/12/30 23:41:31;;;;;;;9.13;5.83;;;3.30;1.00;;;;;;5011384;28;20189;-76
2020/12/30 23:44:00;;;;;;;9.13;6.07;;;3.30;1.00;;;;;;5005047;28;20463;-76
2020/12/30 23:46:27;;;;;;;8.67;6.10;;;3.30;1.00;;;;;;5004078;28;20223;-76
2020/12/30 23:48:53;;;;;;;7.50;5.57;;;3.30;1.00;;;;;;5005433;28;20489;-77
2020/12/30 23:51:19;;;;;;;7.90;6.20;;;3.40;1.00;;;;;;5006121;28;20631;-75
2020/12/30 23:53:44;;;;;;;7.10;5.00;;;3.50;1.00;;;;;;5010405;28;20503;-77
2020/12/30 23:56:10;;;;;;;9.10;6.20;;;3.50;1.00;;;;;;5014708;28;20484;-76
2020/12/30 23:58:36;;;;;;;8.77;6.00;;;3.60;1.00;;;;;;5014134;28;20843;-76
